Terminal Aerodrome Forecast
Issued by NWS Jackson, MS

Home | Current Version | Previous Version | Text Only | Print | Product List | Glossary On
Versions: 1 2 3 4 5 6 7 8 9 10 11 12 13 14
000
FTUS44 KJAN 221858 AAA
TAFJAN
TAF AMD
KJAN 221858Z 2219/2318 35006KT P6SM -RA FEW006 BKN050
     FM222100 30006KT P6SM VCSH BKN015
     FM230000 30006KT P6SM VCSH BKN025
     FM230300 33006KT P6SM BKN008
     FM230800 32007KT P6SM BKN015
     FM231300 32010G16KT P6SM FEW025 SCT250=

USA.gov is the U.S. government's official web portal to all federal, state and local government web resources and services.